createdAt,value
2023-01-02T00:01:37.148Z,100223.47
2023-01-02T00:04:05.569Z,100223.44
2023-01-02T00:06:38.661Z,100225.69
2023-01-02T00:09:09.018Z,100222.81
2023-01-02T00:11:37.533Z,100230.63
2023-01-02T00:14:06.211Z,100226.91
2023-01-02T00:16:34.654Z,100224.63
2023-01-02T00:19:03.175Z,100233.53
2023-01-02T00:21:31.675Z,100225.47
2023-01-02T00:24:00.719Z,100214.59
2023-01-02T00:26:29.136Z,100209.38
2023-01-02T00:28:57.543Z,100210.66
2023-01-02T00:31:26.107Z,100206.69
2023-01-02T00:33:54.846Z,100203.97
2023-01-02T00:36:23.388Z,100204.34
2023-01-02T00:38:51.847Z,100205.81
2023-01-02T00:41:21.440Z,100194.06
2023-01-02T00:43:49.896Z,100202.53
2023-01-02T00:46:18.792Z,100207.06
2023-01-02T00:48:47.293Z,100199.97
2023-01-02T00:51:16.260Z,100194.06
2023-01-02T00:53:44.733Z,100193.50
2023-01-02T00:56:13.404Z,100194.53
2023-01-02T00:58:41.778Z,100195.41
2023-01-02T01:01:10.283Z,100189.81
2023-01-02T01:03:39.672Z,100190.25
2023-01-02T01:06:09.943Z,100177.25
2023-01-02T01:08:39.619Z,100183.00
2023-01-02T01:11:14.002Z,100169.41
2023-01-02T01:13:42.918Z,100181.19
2023-01-02T01:16:13.984Z,100176.47
2023-01-02T01:18:43.079Z,100186.78
2023-01-02T01:21:17.155Z,100180.16
2023-01-02T01:23:45.840Z,100176.47
2023-01-02T01:26:14.936Z,100171.94
2023-01-02T01:28:43.390Z,100168.47
2023-01-02T01:31:14.729Z,100172.81
2023-01-02T01:33:44.249Z,100166.81
2023-01-02T01:36:21.595Z,100168.69
2023-01-02T01:38:50.114Z,100171.38
2023-01-02T01:41:22.806Z,100173.00
2023-01-02T01:43:55.336Z,100161.88
2023-01-02T01:46:40.637Z,100160.84
2023-01-02T01:49:28.859Z,100165.38
2023-01-02T01:52:08.149Z,100157.75
2023-01-02T01:54:45.360Z,100163.09
2023-01-02T01:57:23.243Z,100166.38
2023-01-02T01:59:52.000Z,100162.69
2023-01-02T02:39:55.115Z,100123.47
2023-01-02T02:42:53.593Z,100127.16
2023-01-02T02:45:50.224Z,100121.16
2023-01-02T02:48:32.688Z,100122.81
2023-01-02T02:51:12.347Z,100119.31
2023-01-02T02:53:51.473Z,100116.03
2023-01-02T02:56:22.015Z,100104.47
2023-01-02T02:58:50.423Z,100109.00
2023-01-02T03:01:20.409Z,100117.03
2023-01-02T03:03:49.622Z,100111.91
2023-01-02T03:06:18.058Z,100115.19
2023-01-02T03:09:23.381Z,100110.66
2023-01-02T03:12:27.786Z,100109.66
2023-01-02T03:15:17.532Z,100106.56
2023-01-02T03:18:12.881Z,100116.25
2023-01-02T03:20:46.603Z,100103.88
2023-01-02T03:23:25.041Z,100106.13
2023-01-02T03:25:53.590Z,100099.53
2023-01-02T03:28:24.686Z,100095.41
2023-01-02T03:30:57.383Z,100093.56
2023-01-02T03:33:33.644Z,100096.00
2023-01-02T03:36:07.552Z,100094.16
2023-01-02T03:38:45.166Z,100091.66
2023-01-02T03:41:21.870Z,100083.63
2023-01-02T03:43:57.017Z,100088.00
2023-01-02T03:47:14.568Z,100095.44
2023-01-02T03:49:48.917Z,100080.56
2023-01-02T03:52:21.172Z,100086.13
2023-01-02T03:54:55.518Z,100078.50
2023-01-02T03:57:26.789Z,100088.63
2023-01-02T04:00:06.409Z,100084.06
2023-01-02T04:03:14.228Z,100093.16
2023-01-02T04:05:51.542Z,100085.13
2023-01-02T04:09:01.735Z,100087.38
2023-01-02T04:11:31.705Z,100090.66
2023-01-02T04:14:05.164Z,100086.97
2023-01-02T04:16:36.914Z,100089.41
2023-01-02T04:19:30.170Z,100093.56
2023-01-02T04:22:04.866Z,100095.56
2023-01-02T04:24:38.873Z,100088.34
2023-01-02T04:27:15.068Z,100086.09
2023-01-02T04:29:43.629Z,100091.44
2023-01-02T04:32:19.551Z,100091.22
2023-01-02T04:34:49.644Z,100094.31
2023-01-02T04:37:33.613Z,100087.66
2023-01-02T04:40:13.916Z,100084.78
2023-01-02T04:42:42.533Z,100082.31
2023-01-02T04:45:11.472Z,100090.34
2023-01-02T04:47:40.040Z,100086.84
2023-01-02T04:50:09.508Z,100095.06
2023-01-02T04:52:38.400Z,100076.94
2023-01-02T04:55:09.847Z,100079.19
2023-01-02T04:57:39.052Z,100078.97
2023-01-02T05:00:09.862Z,100080.66
2023-01-02T05:02:41.065Z,100074.94
2023-01-02T05:05:10.574Z,100085.66
2023-01-02T05:07:40.323Z,100079.88
2023-01-02T05:10:09.550Z,100072.03
2023-01-02T05:12:40.998Z,100079.63
2023-01-02T05:15:11.149Z,100091.16
2023-01-02T05:17:42.550Z,100083.75
2023-01-02T05:20:14.653Z,100087.03
2023-01-02T05:23:02.485Z,100087.84
2023-01-02T05:25:35.685Z,100099.81
2023-01-02T05:28:05.149Z,100088.66
2023-01-02T05:30:33.577Z,100085.78
2023-01-02T05:33:01.945Z,100086.41
2023-01-02T05:35:33.209Z,100080.47
2023-01-02T05:38:02.548Z,100081.47
2023-01-02T05:40:31.012Z,100090.09
2023-01-02T05:43:00.248Z,100080.63
2023-01-02T05:45:28.593Z,100082.28
2023-01-02T05:47:57.224Z,100080.44
2023-01-02T05:50:25.656Z,100086.81
2023-01-02T05:52:54.201Z,100087.84
2023-01-02T05:55:22.717Z,100088.88
2023-01-02T05:57:51.144Z,100095.03
2023-01-02T06:00:19.786Z,100090.75
2023-01-02T06:02:48.828Z,100078.03
2023-01-02T06:05:17.692Z,100091.78
2023-01-02T06:07:46.102Z,100084.00
2023-01-02T06:10:14.648Z,100094.09
2023-01-02T06:12:42.647Z,100095.94
2023-01-02T06:15:11.224Z,100092.88
2023-01-02T06:17:39.624Z,100092.88
2023-01-02T06:20:08.556Z,100088.34
2023-01-02T06:22:36.959Z,100100.31
2023-01-02T06:25:05.676Z,100097.19
2023-01-02T06:27:34.221Z,100100.31
2023-01-02T06:30:02.846Z,100093.50
2023-01-02T06:32:31.578Z,100096.38
2023-01-02T06:35:00.007Z,100091.44
2023-01-02T06:37:28.448Z,100084.81
2023-01-02T06:39:56.856Z,100086.09
2023-01-02T06:42:25.295Z,100081.56
2023-01-02T06:44:53.698Z,100089.19
2023-01-02T06:47:22.156Z,100096.63
2023-01-02T06:49:50.590Z,100098.06
2023-01-02T06:52:19.381Z,100106.94
2023-01-02T06:54:47.917Z,100111.44
2023-01-02T06:57:16.316Z,100118.22
2023-01-02T06:59:44.765Z,100122.34
2023-01-02T07:02:14.053Z,100110.22
2023-01-02T07:04:42.581Z,100108.97
2023-01-02T07:07:11.020Z,100120.91
2023-01-02T07:09:39.452Z,100129.16
2023-01-02T07:12:07.951Z,100135.75
2023-01-02T07:14:36.354Z,100133.06
2023-01-02T07:17:04.756Z,100137.22
2023-01-02T07:19:33.134Z,100135.97
2023-01-02T07:22:01.543Z,100127.69
2023-01-02T07:24:29.944Z,100133.47
2023-01-02T07:26:58.461Z,100136.97
2023-01-02T07:29:26.874Z,100140.22
2023-01-02T07:31:55.271Z,100135.91
2023-01-02T07:34:23.752Z,100147.06
2023-01-02T07:36:52.135Z,100141.03
2023-01-02T07:39:20.560Z,100135.69
2023-01-02T07:41:48.962Z,100136.28
2023-01-02T07:44:17.502Z,100138.97
2023-01-02T07:46:45.916Z,100147.59
2023-01-02T07:49:14.199Z,100143.47
2023-01-02T07:51:42.576Z,100145.13
2023-01-02T07:54:10.696Z,100151.13
2023-01-02T07:56:39.051Z,100152.34
2023-01-02T07:59:07.656Z,100161.00
2023-01-02T08:01:36.112Z,100152.78
2023-01-02T08:04:04.607Z,100163.88
2023-01-02T08:06:33.694Z,100160.56
2023-01-02T08:09:02.122Z,100151.94
2023-01-02T08:11:30.984Z,100158.53
2023-01-02T08:13:59.581Z,100156.22
2023-01-02T08:16:28.055Z,100159.94
2023-01-02T08:18:57.087Z,100156.22
2023-01-02T08:21:27.426Z,100155.59
2023-01-02T08:23:55.615Z,100149.84
2023-01-02T08:26:25.531Z,100147.16
2023-01-02T08:28:55.044Z,100158.91
2023-01-02T08:31:23.765Z,100154.81
2023-01-02T08:33:52.428Z,100150.69
2023-01-02T08:36:21.196Z,100153.19
2023-01-02T08:38:49.748Z,100158.72
2023-01-02T08:41:41.353Z,100157.88
2023-01-02T08:44:09.890Z,100159.94
2023-01-02T08:46:42.686Z,100156.63
2023-01-02T08:49:12.272Z,100161.59
2023-01-02T08:51:40.781Z,100150.28
2023-01-02T08:54:09.271Z,100162.22
2023-01-02T08:56:38.259Z,100165.53
2023-01-02T08:59:10.459Z,100162.44
2023-01-02T09:01:39.449Z,100167.63
2023-01-02T09:04:12.471Z,100169.06
2023-01-02T09:06:43.276Z,100173.41
2023-01-02T09:09:13.546Z,100179.78
2023-01-02T09:11:50.541Z,100172.19
2023-01-02T09:14:21.906Z,100172.03
2023-01-02T09:16:51.790Z,100166.81
2023-01-02T09:19:20.783Z,100165.84
2023-01-02T09:21:49.460Z,100160.91
2023-01-02T09:24:17.994Z,100163.38
2023-01-02T09:26:46.687Z,100160.09
2023-01-02T09:29:15.605Z,100160.72
2023-01-02T09:31:44.201Z,100168.78
2023-01-02T09:34:12.931Z,100165.66
2023-01-02T09:36:41.613Z,100175.38
2023-01-02T09:39:10.290Z,100169.59
2023-01-02T09:41:53.176Z,100168.38
2023-01-02T09:44:53.813Z,100167.78
2023-01-02T09:47:29.582Z,100155.22
2023-01-02T09:50:03.695Z,100155.00
2023-01-02T09:52:40.219Z,100161.19
2023-01-02T09:55:45.863Z,100153.56
2023-01-02T09:58:41.148Z,100165.56
2023-01-02T10:01:22.833Z,100158.53
2023-01-02T10:04:05.646Z,100158.31
2023-01-02T10:06:55.436Z,100147.41
2023-01-02T10:09:58.193Z,100145.34
2023-01-02T10:12:28.777Z,100146.59
2023-01-02T10:14:58.195Z,100143.91
2023-01-02T10:17:30.350Z,100144.53
2023-01-02T10:20:33.536Z,100147.88
2023-01-02T10:23:08.692Z,100137.31
2023-01-02T10:25:53.137Z,100142.09
2023-01-02T10:28:47.543Z,100135.69
2023-01-02T10:31:27.165Z,100140.84
2023-01-02T10:34:01.446Z,100134.25
2023-01-02T10:36:39.474Z,100142.28
2023-01-02T10:39:22.107Z,100136.13
2023-01-02T10:41:54.495Z,100132.19
2023-01-02T10:44:35.577Z,100138.41
2023-01-02T10:47:38.802Z,100139.59
2023-01-02T10:50:16.309Z,100124.97
2023-01-02T10:52:47.400Z,100125.41
2023-01-02T10:55:15.866Z,100121.66
2023-01-02T10:57:51.191Z,100123.09
2023-01-02T11:00:27.732Z,100117.13
2023-01-02T11:03:13.409Z,100116.28
2023-01-02T11:05:52.370Z,100124.16
2023-01-02T11:08:24.718Z,100128.28
2023-01-02T11:10:53.418Z,100126.84
2023-01-02T11:13:23.300Z,100123.50
2023-01-02T11:16:01.454Z,100129.31
2023-01-02T11:18:35.661Z,100131.16
2023-01-02T11:21:06.907Z,100136.31
2023-01-02T11:23:43.080Z,100129.06
2023-01-02T11:26:22.139Z,100128.00
2023-01-02T11:28:55.583Z,100119.53
2023-01-02T11:31:24.508Z,100124.28
2023-01-02T11:33:53.294Z,100125.50
2023-01-02T11:36:21.684Z,100123.41
2023-01-02T11:38:57.685Z,100127.53
2023-01-02T11:41:56.696Z,100139.06
2023-01-02T11:44:50.071Z,100126.28
2023-01-02T11:47:18.832Z,100121.94
2023-01-02T11:49:50.159Z,100125.88
2023-01-02T11:52:25.255Z,100115.56
2023-01-02T11:55:02.055Z,100114.75
2023-01-02T11:57:32.318Z,100127.31
2023-01-02T12:00:10.608Z,100125.47
2023-01-02T12:02:43.915Z,100132.47
2023-01-02T12:05:17.544Z,100126.66
2023-01-02T12:07:55.697Z,100121.94
2023-01-02T12:10:57.311Z,100127.47
2023-01-02T12:13:52.590Z,100104.09
2023-01-02T12:16:34.231Z,100126.59
2023-01-02T12:19:46.673Z,100121.81
2023-01-02T12:23:07.436Z,100120.56
2023-01-02T12:26:09.564Z,100112.28
2023-01-02T12:28:56.392Z,100113.06
2023-01-02T12:32:06.612Z,100110.19
2023-01-02T12:35:36.004Z,100117.22
2023-01-02T12:38:10.161Z,100125.06
2023-01-02T12:42:01.587Z,100125.28
2023-01-02T12:44:52.425Z,100121.38
2023-01-02T12:47:41.255Z,100121.41
2023-01-02T12:50:37.270Z,100132.19
2023-01-02T12:53:24.495Z,100132.66
2023-01-02T12:56:22.037Z,100121.66
2023-01-02T12:59:09.253Z,100118.97
2023-01-02T13:01:55.794Z,100123.75
2023-01-02T13:04:36.280Z,100125.44
2023-01-02T13:07:13.754Z,100121.94
2023-01-02T13:09:44.820Z,100126.91
2023-01-02T13:12:21.317Z,100129.59
2023-01-02T13:15:22.440Z,100138.91
2023-01-02T13:18:15.559Z,100134.16
2023-01-02T13:20:49.593Z,100133.69
2023-01-02T13:23:39.757Z,100144.91
2023-01-02T13:26:30.213Z,100133.97
2023-01-02T13:29:10.519Z,100149.88
2023-01-02T13:31:47.409Z,100153.78
2023-01-02T13:34:29.979Z,100155.47
2023-01-02T13:37:09.465Z,100159.59
2023-01-02T13:39:43.638Z,100166.59
2023-01-02T13:42:41.884Z,100181.06
2023-01-02T13:45:19.393Z,100181.50
2023-01-02T13:47:54.833Z,100181.25
2023-01-02T13:50:43.718Z,100189.56
2023-01-02T13:53:12.130Z,100182.75
2023-01-02T13:55:43.185Z,100198.47
2023-01-02T13:58:14.878Z,100199.28
2023-01-02T14:00:55.201Z,100202.00
2023-01-02T14:03:24.461Z,100193.28
2023-01-02T14:06:28.753Z,100194.53
2023-01-02T14:09:05.790Z,100191.84
2023-01-02T14:11:55.339Z,100195.16
2023-01-02T14:14:40.353Z,100192.47
2023-01-02T14:17:17.740Z,100196.81
2023-01-02T14:19:46.469Z,100212.09
2023-01-02T14:22:15.848Z,100206.13
2023-01-02T14:24:53.615Z,100209.44
2023-01-02T14:27:32.138Z,100202.81
2023-01-02T14:30:13.729Z,100215.03
2023-01-02T14:32:46.833Z,100224.72
2023-01-02T14:35:15.219Z,100233.19
2023-01-02T14:37:45.007Z,100241.88
2023-01-02T14:40:37.273Z,100247.44
2023-01-02T14:43:30.239Z,100240.41
2023-01-02T14:46:14.227Z,100241.25
2023-01-02T14:49:25.317Z,100255.09
2023-01-02T14:52:08.289Z,100250.78
2023-01-02T14:55:00.569Z,100252.81
2023-01-02T14:57:35.875Z,100256.53
2023-01-02T15:00:14.261Z,100250.75
2023-01-02T15:02:47.655Z,100256.53
2023-01-02T15:05:32.191Z,100276.31
2023-01-02T15:08:02.345Z,100275.06
2023-01-02T15:10:30.738Z,100285.38
2023-01-02T15:13:07.474Z,100283.94
2023-01-02T15:15:42.528Z,100288.72
2023-01-02T15:18:31.686Z,100297.78
2023-01-02T15:21:15.402Z,100294.88
2023-01-02T15:23:48.653Z,100296.31
2023-01-02T15:26:35.063Z,100306.44
2023-01-02T15:29:13.777Z,100301.69
2023-01-02T15:31:42.860Z,100306.44
2023-01-02T15:34:11.721Z,100301.28
2023-01-02T15:36:42.483Z,100305.19
2023-01-02T15:39:27.952Z,100307.22
2023-01-02T15:41:57.372Z,100319.63
2023-01-02T15:44:46.520Z,100317.09
2023-01-02T15:47:15.884Z,100322.44
2023-01-02T15:49:46.337Z,100324.94
2023-01-02T15:52:27.558Z,100323.69
2023-01-02T15:54:56.609Z,100324.09
2023-01-02T15:57:33.007Z,100325.09
2023-01-02T16:00:02.026Z,100340.16
2023-01-02T16:02:37.663Z,100342.84
2023-01-02T16:05:11.636Z,100342.81
2023-01-02T16:07:40.327Z,100347.09
2023-01-02T16:10:15.327Z,100356.16
2023-01-02T16:12:43.531Z,100353.69
2023-01-02T16:15:11.942Z,100359.06
2023-01-02T16:17:41.136Z,100361.50
2023-01-02T16:20:15.413Z,100367.44
2023-01-02T16:22:52.088Z,100376.13
2023-01-02T16:25:27.026Z,100374.25
2023-01-02T16:28:36.324Z,100367.22
2023-01-02T16:31:14.262Z,100373.38
2023-01-02T16:33:43.494Z,100372.34
2023-01-02T16:36:15.660Z,100372.94
2023-01-02T16:38:55.812Z,100376.41
2023-01-02T16:41:34.805Z,100372.84
2023-01-02T16:44:04.741Z,100380.66
2023-01-02T16:46:33.143Z,100386.09
2023-01-02T16:49:05.429Z,100384.25
2023-01-02T16:51:34.559Z,100394.59
2023-01-02T16:54:03.013Z,100393.75
2023-01-02T16:56:31.896Z,100393.00
2023-01-02T16:59:00.378Z,100396.50
2023-01-02T17:01:28.850Z,100396.97
2023-01-02T17:03:57.330Z,100404.38
2023-01-02T17:06:25.966Z,100419.72
2023-01-02T17:08:54.411Z,100416.75
2023-01-02T17:11:26.379Z,100419.53
2023-01-02T17:13:54.922Z,100430.47
2023-01-02T17:16:23.363Z,100427.13
2023-01-02T17:18:51.781Z,100424.59
2023-01-02T17:21:20.659Z,100433.94
2023-01-02T17:23:49.151Z,100444.22
2023-01-02T17:26:17.612Z,100447.78
2023-01-02T17:28:47.759Z,100450.00
2023-01-02T17:31:18.871Z,100457.50
2023-01-02T17:33:50.713Z,100462.56
2023-01-02T17:36:19.374Z,100469.78
2023-01-02T17:38:47.810Z,100470.16
2023-01-02T17:41:16.281Z,100468.31
2023-01-02T17:44:01.855Z,100472.56
2023-01-02T17:47:09.267Z,100468.56
2023-01-02T17:49:22.096Z,100477.56
2023-01-02T17:51:50.631Z,100467.66
2023-01-02T17:54:19.857Z,100475.13
2023-01-02T17:56:48.351Z,100469.72
2023-01-02T17:59:19.314Z,100486.47
2023-01-02T18:01:48.246Z,100483.03
2023-01-02T18:04:16.926Z,100490.91
2023-01-02T18:06:45.662Z,100495.47
2023-01-02T18:09:15.496Z,100492.50
2023-01-02T18:11:43.991Z,100489.34
2023-01-02T18:14:24.726Z,100494.03
2023-01-02T18:16:57.168Z,100491.53
2023-01-02T18:19:33.171Z,100482.06
2023-01-02T18:22:01.665Z,100471.72
2023-01-02T18:24:33.687Z,100480.28
2023-01-02T18:27:32.786Z,100478.25
2023-01-02T18:30:12.590Z,100482.94
2023-01-02T18:32:43.358Z,100502.78
2023-01-02T18:38:36.293Z,100494.47
2023-01-02T18:41:27.002Z,100501.31
2023-01-02T18:44:18.155Z,100494.97
2023-01-02T18:47:03.072Z,100501.66
2023-01-02T18:49:44.041Z,100511.97
2023-01-02T18:52:12.667Z,100524.66
2023-01-02T18:54:48.078Z,100520.69
2023-01-02T18:57:23.367Z,100513.50
2023-01-02T18:59:53.280Z,100524.72
2023-01-02T19:02:39.493Z,100530.56
2023-01-02T19:05:34.195Z,100540.94
2023-01-02T19:08:02.588Z,100535.44
2023-01-02T19:10:39.249Z,100538.97
2023-01-02T19:13:27.741Z,100552.63
2023-01-02T19:16:22.109Z,100558.47
2023-01-02T19:18:54.049Z,100555.66
2023-01-02T19:21:35.841Z,100557.47
2023-01-02T19:24:11.382Z,100549.81
2023-01-02T19:26:56.015Z,100553.66
2023-01-02T19:29:25.200Z,100579.31
2023-01-02T19:31:58.496Z,100582.81
2023-01-02T19:34:46.184Z,100593.47
2023-01-02T19:37:15.243Z,100596.81
2023-01-02T19:39:56.911Z,100601.66
2023-01-02T19:42:28.759Z,100613.47
2023-01-02T19:45:00.352Z,100617.31
2023-01-02T19:47:34.552Z,100617.66
2023-01-02T19:50:03.372Z,100600.63
2023-01-02T19:52:31.989Z,100605.97
2023-01-02T19:55:00.528Z,100601.47
2023-01-02T19:57:28.985Z,100612.13
2023-01-02T19:59:57.316Z,100604.47
2023-01-02T20:02:26.880Z,100607.97
2023-01-02T20:04:56.475Z,100620.47
2023-01-02T20:07:26.767Z,100621.97
2023-01-02T20:09:55.108Z,100621.63
2023-01-02T20:12:34.476Z,100636.63
2023-01-02T20:15:10.796Z,100643.47
2023-01-02T20:17:40.381Z,100648.09
2023-01-02T20:20:13.263Z,100645.63
2023-01-02T20:22:43.392Z,100654.25
2023-01-02T20:25:17.406Z,100648.94
2023-01-02T20:27:45.831Z,100665.59
2023-01-02T20:30:20.352Z,100670.09
2023-01-02T20:32:52.267Z,100679.09
2023-01-02T20:35:20.631Z,100671.94
2023-01-02T20:37:49.168Z,100677.41
2023-01-02T20:40:17.650Z,100677.41
2023-01-02T20:42:45.817Z,100691.75
2023-01-02T20:45:14.389Z,100689.22
2023-01-02T20:47:42.813Z,100693.56
2023-01-02T20:50:20.076Z,100696.06
2023-01-02T20:52:52.139Z,100703.38
2023-01-02T20:55:25.028Z,100706.72
2023-01-02T20:57:56.349Z,100713.72
2023-01-02T21:00:25.069Z,100715.22
2023-01-02T21:02:53.289Z,100729.38
2023-01-02T21:05:21.918Z,100733.03
2023-01-02T21:07:50.492Z,100736.38
2023-01-02T21:10:19.330Z,100748.38
2023-01-02T21:13:05.132Z,100752.38
2023-01-02T21:15:51.480Z,100782.16
2023-01-02T21:18:35.792Z,100769.97
2023-01-02T21:21:09.105Z,100772.81
2023-01-02T21:23:39.402Z,100771.25
2023-01-02T21:26:10.831Z,100763.88
2023-01-02T21:28:39.939Z,100765.50
2023-01-02T21:31:08.599Z,100771.63
2023-01-02T21:33:37.128Z,100777.13
2023-01-02T21:36:08.791Z,100789.72
2023-01-02T21:38:37.990Z,100786.25
2023-01-02T21:41:24.392Z,100789.22
2023-01-02T21:43:52.609Z,100793.31
2023-01-02T21:46:21.011Z,100790.00
2023-01-02T21:48:49.492Z,100791.81
2023-01-02T21:51:18.015Z,100789.81
2023-01-02T21:53:46.687Z,100796.97
2023-01-02T21:56:15.062Z,100797.97
2023-01-02T21:58:43.417Z,100800.63
2023-01-02T22:01:11.850Z,100810.44
2023-01-02T22:03:40.017Z,100813.78
2023-01-02T22:06:08.234Z,100814.94
2023-01-02T22:08:36.685Z,100830.38
2023-01-02T22:11:22.552Z,100812.72
2023-01-02T22:13:50.707Z,100815.56
2023-01-02T22:16:19.266Z,100830.16
2023-01-02T22:18:49.315Z,100825.69
2023-01-02T22:21:17.928Z,100833.81
2023-01-02T22:23:46.443Z,100832.81
2023-01-02T22:26:14.651Z,100823.00
2023-01-02T22:28:43.465Z,100831.97
2023-01-02T22:31:12.873Z,100826.81
2023-01-02T22:33:42.344Z,100838.75
2023-01-02T22:36:11.289Z,100845.06
2023-01-02T22:38:55.108Z,100846.38
2023-01-02T22:41:31.022Z,100865.00
2023-01-02T22:44:01.973Z,100854.34
2023-01-02T22:46:37.534Z,100852.69
2023-01-02T22:49:05.711Z,100860.50
2023-01-02T22:52:05.478Z,100850.56
2023-01-02T22:54:25.097Z,100862.00
2023-01-02T22:56:53.358Z,100872.00
2023-01-02T22:59:21.385Z,100872.25
2023-01-02T23:01:50.738Z,100876.19
2023-01-02T23:04:23.102Z,100883.16
2023-01-02T23:07:22.921Z,100874.69
2023-01-02T23:09:41.917Z,100880.13
2023-01-02T23:12:10.619Z,100876.34
2023-01-02T23:14:38.938Z,100877.72
2023-01-02T23:17:24.738Z,100887.50
2023-01-02T23:19:52.804Z,100886.91
2023-01-02T23:22:20.811Z,100903.53
2023-01-02T23:24:49.312Z,100904.69
2023-01-02T23:27:17.602Z,100890.09
2023-01-02T23:29:45.796Z,100903.00
2023-01-02T23:32:14.576Z,100903.19
2023-01-02T23:34:43.126Z,100909.31
2023-01-02T23:37:11.952Z,100911.16
2023-01-02T23:39:40.561Z,100915.47
2023-01-02T23:42:09.393Z,100921.63
2023-01-02T23:44:38.423Z,100923.44
2023-01-02T23:47:10.162Z,100922.59
2023-01-02T23:49:41.585Z,100926.81
2023-01-02T23:52:10.193Z,100937.28
2023-01-02T23:54:38.197Z,100938.78
2023-01-02T23:57:06.617Z,100947.31
2023-01-02T23:59:34.625Z,100954.63
